sensor_id;sensor_type;location;lat;lon;timestamp;P1;durP1;ratioP1;P2;durP2;ratioP2
59300;SDS011;45073;52.740;6.784;2023-02-21T00:01:49;33.03;;;20.83;;
59300;SDS011;45073;52.740;6.784;2023-02-21T00:04:34;41.85;;;22.10;;
59300;SDS011;45073;52.740;6.784;2023-02-21T00:07:18;29.13;;;15.85;;
59300;SDS011;45073;52.740;6.784;2023-02-21T00:10:03;28.60;;;15.13;;
59300;SDS011;45073;52.740;6.784;2023-02-21T00:12:47;25.35;;;15.70;;
59300;SDS011;45073;52.740;6.784;2023-02-21T00:15:33;29.90;;;16.50;;
59300;SDS011;45073;52.740;6.784;2023-02-21T00:18:16;35.72;;;18.38;;
59300;SDS011;45073;52.740;6.784;2023-02-21T00:21:01;30.17;;;16.15;;
59300;SDS011;45073;52.740;6.784;2023-02-21T00:23:45;26.67;;;15.18;;
59300;SDS011;45073;52.740;6.784;2023-02-21T00:26:30;24.40;;;15.50;;
59300;SDS011;45073;52.740;6.784;2023-02-21T00:29:14;30.65;;;15.68;;
59300;SDS011;45073;52.740;6.784;2023-02-21T00:31:58;24.63;;;14.10;;
59300;SDS011;45073;52.740;6.784;2023-02-21T00:34:42;30.88;;;15.23;;
59300;SDS011;45073;52.740;6.784;2023-02-21T00:37:27;28.10;;;13.35;;
59300;SDS011;45073;52.740;6.784;2023-02-21T00:40:11;25.10;;;12.90;;
59300;SDS011;45073;52.740;6.784;2023-02-21T00:42:56;23.15;;;13.82;;
59300;SDS011;45073;52.740;6.784;2023-02-21T00:45:40;23.55;;;12.07;;
59300;SDS011;45073;52.740;6.784;2023-02-21T00:48:25;22.10;;;13.75;;
59300;SDS011;45073;52.740;6.784;2023-02-21T00:51:10;16.20;;;10.07;;
59300;SDS011;45073;52.740;6.784;2023-02-21T00:53:54;30.00;;;14.90;;
59300;SDS011;45073;52.740;6.784;2023-02-21T00:56:38;22.25;;;12.38;;
59300;SDS011;45073;52.740;6.784;2023-02-21T00:59:23;17.75;;;10.25;;
59300;SDS011;45073;52.740;6.784;2023-02-21T01:02:07;26.05;;;11.77;;
59300;SDS011;45073;52.740;6.784;2023-02-21T01:04:51;20.27;;;11.55;;
59300;SDS011;45073;52.740;6.784;2023-02-21T01:07:35;20.70;;;12.65;;
59300;SDS011;45073;52.740;6.784;2023-02-21T01:10:20;29.88;;;12.05;;
59300;SDS011;45073;52.740;6.784;2023-02-21T01:13:04;21.13;;;11.95;;
59300;SDS011;45073;52.740;6.784;2023-02-21T01:15:48;25.00;;;12.40;;
59300;SDS011;45073;52.740;6.784;2023-02-21T01:18:32;20.15;;;11.52;;
59300;SDS011;45073;52.740;6.784;2023-02-21T01:21:17;26.20;;;15.18;;
59300;SDS011;45073;52.740;6.784;2023-02-21T01:24:02;25.58;;;13.55;;
59300;SDS011;45073;52.740;6.784;2023-02-21T01:26:48;29.65;;;13.90;;
59300;SDS011;45073;52.740;6.784;2023-02-21T01:29:32;23.65;;;13.07;;
59300;SDS011;45073;52.740;6.784;2023-02-21T01:32:17;23.08;;;12.20;;
59300;SDS011;45073;52.740;6.784;2023-02-21T01:35:02;25.90;;;11.25;;
59300;SDS011;45073;52.740;6.784;2023-02-21T01:37:46;17.77;;;9.77;;
59300;SDS011;45073;52.740;6.784;2023-02-21T01:40:30;20.33;;;10.88;;
59300;SDS011;45073;52.740;6.784;2023-02-21T01:43:14;22.35;;;12.35;;
59300;SDS011;45073;52.740;6.784;2023-02-21T01:46:03;24.85;;;12.07;;
59300;SDS011;45073;52.740;6.784;2023-02-21T01:48:50;23.77;;;12.95;;
59300;SDS011;45073;52.740;6.784;2023-02-21T01:51:38;22.77;;;11.77;;
59300;SDS011;45073;52.740;6.784;2023-02-21T01:54:25;26.30;;;12.55;;
59300;SDS011;45073;52.740;6.784;2023-02-21T01:57:16;21.85;;;10.52;;
59300;SDS011;45073;52.740;6.784;2023-02-21T02:00:04;26.27;;;13.60;;
59300;SDS011;45073;52.740;6.784;2023-02-21T02:02:59;24.85;;;13.23;;
59300;SDS011;45073;52.740;6.784;2023-02-21T02:05:48;24.33;;;11.77;;
59300;SDS011;45073;52.740;6.784;2023-02-21T02:08:35;31.27;;;14.18;;
59300;SDS011;45073;52.740;6.784;2023-02-21T02:11:24;28.65;;;14.00;;
59300;SDS011;45073;52.740;6.784;2023-02-21T02:20:05;30.75;;;13.35;;
59300;SDS011;45073;52.740;6.784;2023-02-21T02:22:54;25.98;;;13.55;;
59300;SDS011;45073;52.740;6.784;2023-02-21T02:33:26;27.20;;;12.73;;
59300;SDS011;45073;52.740;6.784;2023-02-21T02:41:35;28.77;;;14.27;;
59300;SDS011;45073;52.740;6.784;2023-02-21T02:46:50;31.20;;;13.80;;
59300;SDS011;45073;52.740;6.784;2023-02-21T02:49:18;24.80;;;13.10;;
59300;SDS011;45073;52.740;6.784;2023-02-21T02:51:46;24.33;;;13.80;;
59300;SDS011;45073;52.740;6.784;2023-02-21T02:54:12;23.50;;;13.45;;
59300;SDS011;45073;52.740;6.784;2023-02-21T02:56:37;24.25;;;12.85;;
59300;SDS011;45073;52.740;6.784;2023-02-21T02:59:08;23.35;;;12.68;;
59300;SDS011;45073;52.740;6.784;2023-02-21T03:07:04;23.08;;;12.20;;
59300;SDS011;45073;52.740;6.784;2023-02-21T03:09:43;23.00;;;11.23;;
59300;SDS011;45073;52.740;6.784;2023-02-21T03:15:07;22.75;;;12.55;;
59300;SDS011;45073;52.740;6.784;2023-02-21T03:17:42;32.40;;;15.95;;
59300;SDS011;45073;52.740;6.784;2023-02-21T03:20:11;23.13;;;12.07;;
59300;SDS011;45073;52.740;6.784;2023-02-21T03:22:39;26.58;;;12.88;;
59300;SDS011;45073;52.740;6.784;2023-02-21T03:25:06;25.23;;;14.15;;
59300;SDS011;45073;52.740;6.784;2023-02-21T03:27:32;30.40;;;14.90;;
59300;SDS011;45073;52.740;6.784;2023-02-21T03:30:01;25.25;;;13.38;;
59300;SDS011;45073;52.740;6.784;2023-02-21T03:32:37;21.83;;;13.00;;
59300;SDS011;45073;52.740;6.784;2023-02-21T03:35:04;26.98;;;13.65;;
59300;SDS011;45073;52.740;6.784;2023-02-21T03:37:41;22.08;;;12.80;;
59300;SDS011;45073;52.740;6.784;2023-02-21T03:40:41;21.02;;;10.82;;
59300;SDS011;45073;52.740;6.784;2023-02-21T03:43:02;18.83;;;9.95;;
59300;SDS011;45073;52.740;6.784;2023-02-21T03:45:32;17.45;;;10.88;;
59300;SDS011;45073;52.740;6.784;2023-02-21T03:47:59;22.60;;;13.27;;
59300;SDS011;45073;52.740;6.784;2023-02-21T03:50:24;25.50;;;14.52;;
59300;SDS011;45073;52.740;6.784;2023-02-21T03:52:50;22.40;;;12.57;;
59300;SDS011;45073;52.740;6.784;2023-02-21T03:55:15;28.17;;;14.20;;
59300;SDS011;45073;52.740;6.784;2023-02-21T03:57:42;24.85;;;13.52;;
59300;SDS011;45073;52.740;6.784;2023-02-21T04:00:08;25.60;;;15.57;;
59300;SDS011;45073;52.740;6.784;2023-02-21T04:02:34;23.30;;;12.40;;
59300;SDS011;45073;52.740;6.784;2023-02-21T04:05:00;23.13;;;13.10;;
59300;SDS011;45073;52.740;6.784;2023-02-21T04:07:26;24.05;;;13.75;;
59300;SDS011;45073;52.740;6.784;2023-02-21T04:09:51;25.38;;;14.00;;
59300;SDS011;45073;52.740;6.784;2023-02-21T04:12:17;22.70;;;11.68;;
59300;SDS011;45073;52.740;6.784;2023-02-21T04:14:43;21.75;;;13.48;;
59300;SDS011;45073;52.740;6.784;2023-02-21T04:17:08;26.52;;;12.90;;
59300;SDS011;45073;52.740;6.784;2023-02-21T04:19:34;24.42;;;14.55;;
59300;SDS011;45073;52.740;6.784;2023-02-21T04:22:00;27.35;;;15.00;;
59300;SDS011;45073;52.740;6.784;2023-02-21T04:24:25;25.20;;;13.30;;
59300;SDS011;45073;52.740;6.784;2023-02-21T04:26:51;25.75;;;14.43;;
59300;SDS011;45073;52.740;6.784;2023-02-21T04:29:16;25.65;;;14.20;;
59300;SDS011;45073;52.740;6.784;2023-02-21T04:31:42;26.30;;;15.30;;
59300;SDS011;45073;52.740;6.784;2023-02-21T04:34:08;28.83;;;16.75;;
59300;SDS011;45073;52.740;6.784;2023-02-21T04:36:33;25.70;;;14.73;;
59300;SDS011;45073;52.740;6.784;2023-02-21T04:39:01;26.13;;;14.68;;
59300;SDS011;45073;52.740;6.784;2023-02-21T04:41:26;29.17;;;16.58;;
59300;SDS011;45073;52.740;6.784;2023-02-21T04:43:52;30.00;;;15.25;;
59300;SDS011;45073;52.740;6.784;2023-02-21T04:46:18;28.55;;;15.93;;
59300;SDS011;45073;52.740;6.784;2023-02-21T04:48:44;28.92;;;16.38;;
59300;SDS011;45073;52.740;6.784;2023-02-21T04:51:12;25.75;;;14.18;;
59300;SDS011;45073;52.740;6.784;2023-02-21T04:53:38;27.25;;;14.77;;
59300;SDS011;45073;52.740;6.784;2023-02-21T04:56:04;31.30;;;15.75;;
59300;SDS011;45073;52.740;6.784;2023-02-21T04:58:30;26.63;;;15.38;;
59300;SDS011;45073;52.740;6.784;2023-02-21T05:00:56;24.45;;;14.88;;
59300;SDS011;45073;52.740;6.784;2023-02-21T05:03:21;28.50;;;15.10;;
59300;SDS011;45073;52.740;6.784;2023-02-21T05:05:48;33.55;;;16.85;;
59300;SDS011;45073;52.740;6.784;2023-02-21T05:08:14;30.58;;;15.32;;
59300;SDS011;45073;52.740;6.784;2023-02-21T05:10:40;25.02;;;13.75;;
59300;SDS011;45073;52.740;6.784;2023-02-21T05:13:06;28.15;;;15.63;;
59300;SDS011;45073;52.740;6.784;2023-02-21T05:15:31;32.38;;;15.38;;
59300;SDS011;45073;52.740;6.784;2023-02-21T05:17:57;26.38;;;15.35;;
59300;SDS011;45073;52.740;6.784;2023-02-21T05:20:22;25.25;;;14.95;;
59300;SDS011;45073;52.740;6.784;2023-02-21T05:22:48;25.08;;;14.13;;
59300;SDS011;45073;52.740;6.784;2023-02-21T05:25:18;29.23;;;15.93;;
59300;SDS011;45073;52.740;6.784;2023-02-21T05:27:46;28.33;;;14.48;;
59300;SDS011;45073;52.740;6.784;2023-02-21T05:30:12;32.55;;;17.65;;
59300;SDS011;45073;52.740;6.784;2023-02-21T05:32:39;33.58;;;18.25;;
59300;SDS011;45073;52.740;6.784;2023-02-21T05:35:05;30.30;;;15.00;;
59300;SDS011;45073;52.740;6.784;2023-02-21T05:37:31;30.00;;;17.45;;
59300;SDS011;45073;52.740;6.784;2023-02-21T05:39:57;30.27;;;16.85;;
59300;SDS011;45073;52.740;6.784;2023-02-21T05:42:22;25.50;;;17.38;;
59300;SDS011;45073;52.740;6.784;2023-02-21T05:44:48;28.50;;;16.70;;
59300;SDS011;45073;52.740;6.784;2023-02-21T05:47:13;29.65;;;18.08;;
59300;SDS011;45073;52.740;6.784;2023-02-21T05:49:39;34.08;;;19.25;;
59300;SDS011;45073;52.740;6.784;2023-02-21T05:52:06;33.25;;;20.08;;
59300;SDS011;45073;52.740;6.784;2023-02-21T05:54:34;26.25;;;15.00;;
59300;SDS011;45073;52.740;6.784;2023-02-21T05:57:00;31.60;;;17.88;;
59300;SDS011;45073;52.740;6.784;2023-02-21T05:59:26;28.15;;;17.27;;
59300;SDS011;45073;52.740;6.784;2023-02-21T06:01:52;32.90;;;19.13;;
59300;SDS011;45073;52.740;6.784;2023-02-21T06:04:17;36.55;;;19.80;;
59300;SDS011;45073;52.740;6.784;2023-02-21T06:06:43;35.03;;;20.92;;
59300;SDS011;45073;52.740;6.784;2023-02-21T06:09:09;33.70;;;19.20;;
59300;SDS011;45073;52.740;6.784;2023-02-21T06:11:36;30.10;;;17.83;;
59300;SDS011;45073;52.740;6.784;2023-02-21T06:14:04;38.95;;;18.00;;
59300;SDS011;45073;52.740;6.784;2023-02-21T06:16:32;31.90;;;18.52;;
59300;SDS011;45073;52.740;6.784;2023-02-21T06:19:02;32.72;;;18.30;;
59300;SDS011;45073;52.740;6.784;2023-02-21T06:21:29;32.53;;;17.67;;
59300;SDS011;45073;52.740;6.784;2023-02-21T06:23:54;35.20;;;19.13;;
59300;SDS011;45073;52.740;6.784;2023-02-21T06:26:20;32.25;;;19.25;;
59300;SDS011;45073;52.740;6.784;2023-02-21T06:28:46;30.92;;;16.58;;
59300;SDS011;45073;52.740;6.784;2023-02-21T06:31:12;32.53;;;17.98;;
59300;SDS011;45073;52.740;6.784;2023-02-21T06:33:38;32.10;;;18.00;;
59300;SDS011;45073;52.740;6.784;2023-02-21T06:36:04;30.50;;;16.38;;
59300;SDS011;45073;52.740;6.784;2023-02-21T06:38:31;31.95;;;17.27;;
59300;SDS011;45073;52.740;6.784;2023-02-21T06:40:58;31.55;;;17.98;;
59300;SDS011;45073;52.740;6.784;2023-02-21T06:43:23;30.40;;;18.58;;
59300;SDS011;45073;52.740;6.784;2023-02-21T06:45:49;30.65;;;17.08;;
59300;SDS011;45073;52.740;6.784;2023-02-21T06:48:15;38.42;;;19.85;;
59300;SDS011;45073;52.740;6.784;2023-02-21T06:50:41;33.03;;;19.25;;
59300;SDS011;45073;52.740;6.784;2023-02-21T06:53:06;33.08;;;18.02;;
59300;SDS011;45073;52.740;6.784;2023-02-21T06:55:32;35.47;;;19.60;;
59300;SDS011;45073;52.740;6.784;2023-02-21T06:57:57;31.67;;;18.67;;
59300;SDS011;45073;52.740;6.784;2023-02-21T07:00:23;34.83;;;19.13;;
59300;SDS011;45073;52.740;6.784;2023-02-21T07:02:51;32.88;;;20.10;;
59300;SDS011;45073;52.740;6.784;2023-02-21T07:05:17;33.97;;;20.65;;
59300;SDS011;45073;52.740;6.784;2023-02-21T07:07:43;40.75;;;20.90;;
59300;SDS011;45073;52.740;6.784;2023-02-21T07:10:09;35.38;;;18.67;;
59300;SDS011;45073;52.740;6.784;2023-02-21T07:12:35;33.97;;;20.63;;
59300;SDS011;45073;52.740;6.784;2023-02-21T07:15:01;36.90;;;20.25;;
59300;SDS011;45073;52.740;6.784;2023-02-21T07:17:27;37.95;;;20.42;;
59300;SDS011;45073;52.740;6.784;2023-02-21T07:19:53;34.40;;;20.52;;
59300;SDS011;45073;52.740;6.784;2023-02-21T07:22:18;35.63;;;20.05;;
59300;SDS011;45073;52.740;6.784;2023-02-21T07:24:50;36.78;;;20.60;;
59300;SDS011;45073;52.740;6.784;2023-02-21T07:27:19;33.83;;;18.33;;
59300;SDS011;45073;52.740;6.784;2023-02-21T07:29:46;39.83;;;21.58;;
59300;SDS011;45073;52.740;6.784;2023-02-21T07:32:12;33.85;;;18.08;;
59300;SDS011;45073;52.740;6.784;2023-02-21T07:34:38;39.78;;;21.27;;
59300;SDS011;45073;52.740;6.784;2023-02-21T07:37:04;39.08;;;20.38;;
59300;SDS011;45073;52.740;6.784;2023-02-21T07:39:29;40.67;;;21.35;;
59300;SDS011;45073;52.740;6.784;2023-02-21T07:41:55;39.13;;;21.60;;
59300;SDS011;45073;52.740;6.784;2023-02-21T07:44:20;36.60;;;22.73;;
59300;SDS011;45073;52.740;6.784;2023-02-21T07:46:46;35.15;;;20.88;;
59300;SDS011;45073;52.740;6.784;2023-02-21T07:49:12;35.50;;;19.45;;
59300;SDS011;45073;52.740;6.784;2023-02-21T07:51:37;43.38;;;22.15;;
59300;SDS011;45073;52.740;6.784;2023-02-21T07:54:03;39.00;;;22.95;;
59300;SDS011;45073;52.740;6.784;2023-02-21T07:56:29;37.25;;;20.08;;
59300;SDS011;45073;52.740;6.784;2023-02-21T07:58:55;39.33;;;23.10;;
59300;SDS011;45073;52.740;6.784;2023-02-21T08:01:24;42.97;;;23.60;;
59300;SDS011;45073;52.740;6.784;2023-02-21T08:03:50;38.72;;;22.15;;
59300;SDS011;45073;52.740;6.784;2023-02-21T08:06:16;39.30;;;23.20;;
59300;SDS011;45073;52.740;6.784;2023-02-21T08:08:43;37.88;;;21.45;;
59300;SDS011;45073;52.740;6.784;2023-02-21T08:11:09;39.00;;;23.35;;
59300;SDS011;45073;52.740;6.784;2023-02-21T08:13:34;39.33;;;21.63;;
59300;SDS011;45073;52.740;6.784;2023-02-21T08:16:00;34.28;;;21.48;;
59300;SDS011;45073;52.740;6.784;2023-02-21T08:18:26;36.40;;;21.48;;
59300;SDS011;45073;52.740;6.784;2023-02-21T08:20:52;39.38;;;21.73;;
59300;SDS011;45073;52.740;6.784;2023-02-21T08:23:19;40.63;;;21.90;;
59300;SDS011;45073;52.740;6.784;2023-02-21T08:25:45;37.90;;;21.33;;
59300;SDS011;45073;52.740;6.784;2023-02-21T08:28:11;38.53;;;21.63;;
59300;SDS011;45073;52.740;6.784;2023-02-21T08:30:37;41.05;;;22.08;;
59300;SDS011;45073;52.740;6.784;2023-02-21T08:33:03;40.13;;;22.65;;
59300;SDS011;45073;52.740;6.784;2023-02-21T08:35:29;38.20;;;22.60;;
59300;SDS011;45073;52.740;6.784;2023-02-21T08:37:55;40.97;;;22.80;;
59300;SDS011;45073;52.740;6.784;2023-02-21T08:40:21;36.30;;;21.67;;
59300;SDS011;45073;52.740;6.784;2023-02-21T08:42:48;37.20;;;22.15;;
59300;SDS011;45073;52.740;6.784;2023-02-21T08:45:16;42.95;;;21.05;;
59300;SDS011;45073;52.740;6.784;2023-02-21T08:47:43;40.38;;;22.75;;
59300;SDS011;45073;52.740;6.784;2023-02-21T08:50:09;39.47;;;22.25;;
59300;SDS011;45073;52.740;6.784;2023-02-21T08:52:34;41.05;;;22.33;;
59300;SDS011;45073;52.740;6.784;2023-02-21T08:55:04;38.60;;;22.15;;
59300;SDS011;45073;52.740;6.784;2023-02-21T08:57:30;43.90;;;24.83;;
59300;SDS011;45073;52.740;6.784;2023-02-21T08:59:58;40.90;;;22.50;;
59300;SDS011;45073;52.740;6.784;2023-02-21T09:02:24;42.42;;;24.30;;
59300;SDS011;45073;52.740;6.784;2023-02-21T09:04:51;43.20;;;24.35;;
59300;SDS011;45073;52.740;6.784;2023-02-21T09:07:18;39.58;;;22.88;;
59300;SDS011;45073;52.740;6.784;2023-02-21T09:09:45;43.05;;;24.67;;
59300;SDS011;45073;52.740;6.784;2023-02-21T09:12:10;39.90;;;23.27;;
59300;SDS011;45073;52.740;6.784;2023-02-21T09:14:37;37.72;;;20.35;;
59300;SDS011;45073;52.740;6.784;2023-02-21T09:17:05;38.78;;;21.63;;
59300;SDS011;45073;52.740;6.784;2023-02-21T09:19:32;38.45;;;20.58;;
59300;SDS011;45073;52.740;6.784;2023-02-21T09:21:58;45.25;;;24.67;;
59300;SDS011;45073;52.740;6.784;2023-02-21T09:24:24;37.88;;;22.38;;
59300;SDS011;45073;52.740;6.784;2023-02-21T09:26:51;43.88;;;24.80;;
59300;SDS011;45073;52.740;6.784;2023-02-21T09:29:27;41.92;;;22.92;;
59300;SDS011;45073;52.740;6.784;2023-02-21T09:31:57;42.33;;;23.95;;
59300;SDS011;45073;52.740;6.784;2023-02-21T09:34:23;46.42;;;23.73;;
59300;SDS011;45073;52.740;6.784;2023-02-21T09:36:49;47.55;;;25.45;;
59300;SDS011;45073;52.740;6.784;2023-02-21T09:39:19;43.85;;;23.75;;
59300;SDS011;45073;52.740;6.784;2023-02-21T09:41:46;45.83;;;25.30;;
59300;SDS011;45073;52.740;6.784;2023-02-21T09:44:13;44.55;;;25.05;;
59300;SDS011;45073;52.740;6.784;2023-02-21T09:46:44;43.50;;;24.15;;
59300;SDS011;45073;52.740;6.784;2023-02-21T09:49:15;46.58;;;24.70;;
59300;SDS011;45073;52.740;6.784;2023-02-21T09:51:47;43.20;;;23.60;;
59300;SDS011;45073;52.740;6.784;2023-02-21T09:54:21;42.60;;;23.77;;
59300;SDS011;45073;52.740;6.784;2023-02-21T09:57:00;43.50;;;24.60;;
59300;SDS011;45073;52.740;6.784;2023-02-21T09:59:27;43.08;;;22.58;;
59300;SDS011;45073;52.740;6.784;2023-02-21T10:12:39;40.20;;;22.90;;
59300;SDS011;45073;52.740;6.784;2023-02-21T10:18:35;47.15;;;23.92;;
59300;SDS011;45073;52.740;6.784;2023-02-21T10:21:35;42.42;;;22.67;;
59300;SDS011;45073;52.740;6.784;2023-02-21T10:24:09;41.17;;;20.65;;
59300;SDS011;45073;52.740;6.784;2023-02-21T10:26:37;39.63;;;23.00;;
59300;SDS011;45073;52.740;6.784;2023-02-21T10:29:19;42.72;;;22.60;;
59300;SDS011;45073;52.740;6.784;2023-02-21T10:31:51;42.83;;;21.92;;
59300;SDS011;45073;52.740;6.784;2023-02-21T10:34:22;41.65;;;22.15;;
59300;SDS011;45073;52.740;6.784;2023-02-21T10:36:53;40.42;;;24.73;;
59300;SDS011;45073;52.740;6.784;2023-02-21T10:39:21;43.70;;;24.70;;
59300;SDS011;45073;52.740;6.784;2023-02-21T10:41:54;46.35;;;24.90;;
59300;SDS011;45073;52.740;6.784;2023-02-21T10:44:25;46.10;;;23.98;;
59300;SDS011;45073;52.740;6.784;2023-02-21T10:47:00;43.08;;;25.42;;
59300;SDS011;45073;52.740;6.784;2023-02-21T10:49:35;39.88;;;20.88;;
59300;SDS011;45073;52.740;6.784;2023-02-21T10:54:37;38.47;;;21.85;;
59300;SDS011;45073;52.740;6.784;2023-02-21T10:57:06;40.03;;;23.35;;
59300;SDS011;45073;52.740;6.784;2023-02-21T10:59:35;41.63;;;24.08;;
59300;SDS011;45073;52.740;6.784;2023-02-21T11:02:23;39.83;;;21.10;;
59300;SDS011;45073;52.740;6.784;2023-02-21T11:04:53;39.28;;;23.60;;
59300;SDS011;45073;52.740;6.784;2023-02-21T11:07:20;37.53;;;23.10;;
59300;SDS011;45073;52.740;6.784;2023-02-21T11:09:48;47.60;;;27.35;;
59300;SDS011;45073;52.740;6.784;2023-02-21T11:14:41;41.45;;;24.08;;
59300;SDS011;45073;52.740;6.784;2023-02-21T11:17:21;42.55;;;25.02;;
59300;SDS011;45073;52.740;6.784;2023-02-21T11:19:49;45.83;;;24.50;;
59300;SDS011;45073;52.740;6.784;2023-02-21T11:22:18;40.17;;;24.98;;
59300;SDS011;45073;52.740;6.784;2023-02-21T11:24:58;41.53;;;23.85;;
59300;SDS011;45073;52.740;6.784;2023-02-21T11:27:25;45.53;;;25.58;;
59300;SDS011;45073;52.740;6.784;2023-02-21T11:29:52;37.22;;;22.33;;
59300;SDS011;45073;52.740;6.784;2023-02-21T11:32:29;40.35;;;21.58;;
59300;SDS011;45073;52.740;6.784;2023-02-21T11:40:25;40.80;;;24.20;;
59300;SDS011;45073;52.740;6.784;2023-02-21T11:42:50;34.25;;;20.23;;
59300;SDS011;45073;52.740;6.784;2023-02-21T11:45:33;44.45;;;25.58;;
59300;SDS011;45073;52.740;6.784;2023-02-21T11:48:03;41.45;;;22.52;;
59300;SDS011;45073;52.740;6.784;2023-02-21T11:50:37;40.88;;;23.30;;
59300;SDS011;45073;52.740;6.784;2023-02-21T11:53:24;38.50;;;23.88;;
59300;SDS011;45073;52.740;6.784;2023-02-21T11:58:36;36.70;;;22.55;;
59300;SDS011;45073;52.740;6.784;2023-02-21T12:01:31;39.22;;;22.48;;
59300;SDS011;45073;52.740;6.784;2023-02-21T12:07:07;36.67;;;22.30;;
59300;SDS011;45073;52.740;6.784;2023-02-21T12:09:57;40.42;;;23.88;;
59300;SDS011;45073;52.740;6.784;2023-02-21T12:15:10;40.72;;;23.63;;
59300;SDS011;45073;52.740;6.784;2023-02-21T12:18:08;41.78;;;24.33;;
59300;SDS011;45073;52.740;6.784;2023-02-21T12:26:25;35.47;;;21.38;;
59300;SDS011;45073;52.740;6.784;2023-02-21T12:29:27;36.58;;;22.60;;
59300;SDS011;45073;52.740;6.784;2023-02-21T12:32:24;37.30;;;22.17;;
59300;SDS011;45073;52.740;6.784;2023-02-21T12:41:01;41.75;;;24.05;;
59300;SDS011;45073;52.740;6.784;2023-02-21T12:46:45;38.50;;;23.02;;
59300;SDS011;45073;52.740;6.784;2023-02-21T12:49:28;39.65;;;23.48;;
59300;SDS011;45073;52.740;6.784;2023-02-21T12:52:12;38.47;;;23.20;;
59300;SDS011;45073;52.740;6.784;2023-02-21T12:54:46;41.42;;;24.63;;
59300;SDS011;45073;52.740;6.784;2023-02-21T12:57:24;42.85;;;24.48;;
59300;SDS011;45073;52.740;6.784;2023-02-21T13:05:32;47.63;;;25.20;;
59300;SDS011;45073;52.740;6.784;2023-02-21T13:08:16;45.17;;;25.58;;
59300;SDS011;45073;52.740;6.784;2023-02-21T13:10:59;42.78;;;24.58;;
59300;SDS011;45073;52.740;6.784;2023-02-21T13:13:31;41.65;;;24.83;;
59300;SDS011;45073;52.740;6.784;2023-02-21T13:15:59;46.33;;;27.23;;
59300;SDS011;45073;52.740;6.784;2023-02-21T13:18:28;46.97;;;27.30;;
59300;SDS011;45073;52.740;6.784;2023-02-21T13:23:41;38.95;;;24.33;;
59300;SDS011;45073;52.740;6.784;2023-02-21T13:28:56;44.15;;;24.75;;
59300;SDS011;45073;52.740;6.784;2023-02-21T13:31:23;43.20;;;23.58;;
59300;SDS011;45073;52.740;6.784;2023-02-21T13:33:58;39.78;;;22.77;;
59300;SDS011;45073;52.740;6.784;2023-02-21T13:36:38;42.10;;;21.70;;
59300;SDS011;45073;52.740;6.784;2023-02-21T13:39:19;39.17;;;24.45;;
59300;SDS011;45073;52.740;6.784;2023-02-21T13:42:00;45.25;;;25.23;;
59300;SDS011;45073;52.740;6.784;2023-02-21T13:44:47;42.40;;;23.35;;
59300;SDS011;45073;52.740;6.784;2023-02-21T13:47:21;39.15;;;22.90;;
59300;SDS011;45073;52.740;6.784;2023-02-21T13:49:54;42.58;;;26.23;;
59300;SDS011;45073;52.740;6.784;2023-02-21T13:57:39;43.28;;;24.42;;
59300;SDS011;45073;52.740;6.784;2023-02-21T14:08:17;45.22;;;24.73;;
59300;SDS011;45073;52.740;6.784;2023-02-21T14:11:01;40.95;;;24.30;;
59300;SDS011;45073;52.740;6.784;2023-02-21T14:16:22;45.85;;;25.95;;
59300;SDS011;45073;52.740;6.784;2023-02-21T14:21:42;49.55;;;25.15;;
59300;SDS011;45073;52.740;6.784;2023-02-21T14:24:15;39.55;;;23.02;;
59300;SDS011;45073;52.740;6.784;2023-02-21T14:26:53;45.08;;;24.58;;
59300;SDS011;45073;52.740;6.784;2023-02-21T14:32:31;47.85;;;26.27;;
59300;SDS011;45073;52.740;6.784;2023-02-21T14:35:44;45.20;;;25.50;;
59300;SDS011;45073;52.740;6.784;2023-02-21T14:38:14;39.40;;;23.17;;
59300;SDS011;45073;52.740;6.784;2023-02-21T14:40:57;41.72;;;24.20;;
59300;SDS011;45073;52.740;6.784;2023-02-21T14:46:15;41.38;;;25.30;;
59300;SDS011;45073;52.740;6.784;2023-02-21T15:00:31;43.28;;;25.05;;
59300;SDS011;45073;52.740;6.784;2023-02-21T15:03:18;47.58;;;26.95;;
59300;SDS011;45073;52.740;6.784;2023-02-21T15:08:19;59.78;;;27.70;;
59300;SDS011;45073;52.740;6.784;2023-02-21T15:10:50;58.80;;;27.75;;
59300;SDS011;45073;52.740;6.784;2023-02-21T15:15:58;64.82;;;29.05;;
59300;SDS011;45073;52.740;6.784;2023-02-21T15:18:40;63.80;;;30.55;;
59300;SDS011;45073;52.740;6.784;2023-02-21T15:21:20;61.42;;;28.38;;
59300;SDS011;45073;52.740;6.784;2023-02-21T15:23:47;61.97;;;29.42;;
59300;SDS011;45073;52.740;6.784;2023-02-21T15:26:25;58.65;;;27.52;;
59300;SDS011;45073;52.740;6.784;2023-02-21T15:31:44;58.67;;;26.45;;
59300;SDS011;45073;52.740;6.784;2023-02-21T15:34:15;65.03;;;29.85;;
59300;SDS011;45073;52.740;6.784;2023-02-21T15:36:57;64.90;;;30.20;;
59300;SDS011;45073;52.740;6.784;2023-02-21T15:39:44;62.17;;;30.50;;
59300;SDS011;45073;52.740;6.784;2023-02-21T15:42:18;66.00;;;28.83;;
59300;SDS011;45073;52.740;6.784;2023-02-21T15:44:49;58.47;;;28.20;;
59300;SDS011;45073;52.740;6.784;2023-02-21T15:47:21;63.67;;;28.48;;
59300;SDS011;45073;52.740;6.784;2023-02-21T15:50:00;65.32;;;29.45;;
59300;SDS011;45073;52.740;6.784;2023-02-21T15:57:42;61.60;;;27.92;;
59300;SDS011;45073;52.740;6.784;2023-02-21T16:00:19;52.65;;;26.30;;
59300;SDS011;45073;52.740;6.784;2023-02-21T16:02:46;56.40;;;25.83;;
59300;SDS011;45073;52.740;6.784;2023-02-21T16:05:22;66.85;;;27.10;;
59300;SDS011;45073;52.740;6.784;2023-02-21T16:07:48;54.85;;;24.25;;
59300;SDS011;45073;52.740;6.784;2023-02-21T16:10:18;52.35;;;23.83;;
59300;SDS011;45073;52.740;6.784;2023-02-21T16:12:50;56.17;;;25.42;;
59300;SDS011;45073;52.740;6.784;2023-02-21T16:15:24;54.80;;;24.65;;
59300;SDS011;45073;52.740;6.784;2023-02-21T16:17:57;53.58;;;24.67;;
59300;SDS011;45073;52.740;6.784;2023-02-21T16:20:29;52.70;;;23.65;;
59300;SDS011;45073;52.740;6.784;2023-02-21T16:26:57;55.83;;;25.45;;
59300;SDS011;45073;52.740;6.784;2023-02-21T16:28:41;56.33;;;26.38;;
59300;SDS011;45073;52.740;6.784;2023-02-21T16:31:08;55.53;;;24.88;;
59300;SDS011;45073;52.740;6.784;2023-02-21T16:33:39;55.88;;;24.30;;
59300;SDS011;45073;52.740;6.784;2023-02-21T16:36:06;54.88;;;24.73;;
59300;SDS011;45073;52.740;6.784;2023-02-21T16:38:34;53.13;;;24.80;;
59300;SDS011;45073;52.740;6.784;2023-02-21T16:40:59;51.83;;;24.40;;
59300;SDS011;45073;52.740;6.784;2023-02-21T16:43:26;59.28;;;24.95;;
59300;SDS011;45073;52.740;6.784;2023-02-21T16:45:57;55.40;;;24.67;;
59300;SDS011;45073;52.740;6.784;2023-02-21T16:48:24;57.03;;;25.70;;
59300;SDS011;45073;52.740;6.784;2023-02-21T16:50:57;56.85;;;24.30;;
59300;SDS011;45073;52.740;6.784;2023-02-21T16:53:23;55.55;;;25.38;;
59300;SDS011;45073;52.740;6.784;2023-02-21T16:55:49;60.58;;;24.48;;
59300;SDS011;45073;52.740;6.784;2023-02-21T17:01:00;55.05;;;25.58;;
59300;SDS011;45073;52.740;6.784;2023-02-21T17:03:28;58.65;;;25.60;;
59300;SDS011;45073;52.740;6.784;2023-02-21T17:05:54;51.50;;;25.42;;
59300;SDS011;45073;52.740;6.784;2023-02-21T17:08:22;54.42;;;24.77;;
59300;SDS011;45073;52.740;6.784;2023-02-21T17:10:48;51.03;;;23.83;;
59300;SDS011;45073;52.740;6.784;2023-02-21T17:13:14;55.42;;;23.35;;
59300;SDS011;45073;52.740;6.784;2023-02-21T17:15:40;56.90;;;23.70;;